createdAt,value
2023-05-09T00:02:00.074Z,17.14
2023-05-09T00:04:26.912Z,17.13
2023-05-09T00:06:53.624Z,17.10
2023-05-09T00:09:20.409Z,17.11
2023-05-09T00:11:48.218Z,17.08
2023-05-09T00:14:15.041Z,17.07
2023-05-09T00:16:45.007Z,17.08
2023-05-09T00:19:13.152Z,17.07
2023-05-09T00:21:42.403Z,17.07
2023-05-09T00:24:09.128Z,17.05
2023-05-09T00:26:36.545Z,17.04
2023-05-09T00:29:03.272Z,17.03
2023-05-09T00:31:29.945Z,17.01
2023-05-09T00:33:56.569Z,16.99
2023-05-09T00:36:26.176Z,16.97
2023-05-09T00:38:53.661Z,16.97
2023-05-09T00:41:21.530Z,16.95
2023-05-09T00:44:07.075Z,16.96
2023-05-09T00:46:34.002Z,16.93
2023-05-09T00:49:19.556Z,16.95
2023-05-09T00:51:47.544Z,16.94
2023-05-09T00:54:14.582Z,16.95
2023-05-09T00:56:41.664Z,16.96
2023-05-09T00:59:08.363Z,16.95
2023-05-09T01:01:37.091Z,16.95
2023-05-09T01:04:04.078Z,16.96
2023-05-09T01:06:32.903Z,16.94
2023-05-09T01:09:07.939Z,16.94
2023-05-09T01:12:03.209Z,16.94
2023-05-09T01:15:02.743Z,16.95
2023-05-09T01:17:59.036Z,16.93
2023-05-09T01:21:03.887Z,16.89
2023-05-09T01:24:08.585Z,16.84
2023-05-09T01:27:01.844Z,16.77
2023-05-09T01:29:37.516Z,16.75
2023-05-09T01:32:28.134Z,16.71
2023-05-09T01:34:59.490Z,16.68
2023-05-09T01:37:33.901Z,16.64
2023-05-09T01:40:08.413Z,16.63
2023-05-09T01:42:43.742Z,16.61
2023-05-09T01:45:12.731Z,16.57
2023-05-09T01:47:42.626Z,16.52
2023-05-09T01:50:11.763Z,16.50
2023-05-09T01:52:42.684Z,16.47
2023-05-09T01:55:10.926Z,16.44
2023-05-09T01:57:41.003Z,16.42
2023-05-09T02:00:10.299Z,16.40
2023-05-09T02:02:38.829Z,16.39
2023-05-09T02:05:06.656Z,16.36
2023-05-09T02:07:33.902Z,16.33
2023-05-09T02:10:02.467Z,16.32
2023-05-09T02:12:31.427Z,16.29
2023-05-09T02:14:58.140Z,16.26
2023-05-09T02:17:43.809Z,16.26
2023-05-09T02:20:11.761Z,16.24
2023-05-09T02:22:41.382Z,16.25
2023-05-09T02:25:09.346Z,16.23
2023-05-09T02:27:56.057Z,16.24
2023-05-09T02:30:26.220Z,16.21
2023-05-09T02:33:01.394Z,16.21
2023-05-09T02:35:29.166Z,16.20
2023-05-09T02:38:14.620Z,16.17
2023-05-09T02:40:44.487Z,16.15
2023-05-09T02:43:29.738Z,16.14
2023-05-09T02:45:56.512Z,16.12
2023-05-09T02:48:23.435Z,16.13
2023-05-09T02:50:50.164Z,16.14
2023-05-09T02:53:16.769Z,16.14
2023-05-09T02:55:43.556Z,16.14
2023-05-09T02:58:15.104Z,16.13
2023-05-09T03:00:42.635Z,16.13
2023-05-09T03:03:09.573Z,16.13
2023-05-09T03:05:55.182Z,16.12
2023-05-09T03:08:21.819Z,16.10
2023-05-09T03:10:48.473Z,16.10
2023-05-09T03:13:15.253Z,16.11
2023-05-09T03:15:45.272Z,16.10
2023-05-09T03:18:12.538Z,16.12
2023-05-09T03:20:39.248Z,16.11
2023-05-09T03:23:07.841Z,16.10
2023-05-09T03:25:34.677Z,16.10
2023-05-09T03:28:01.590Z,16.09
2023-05-09T03:30:28.322Z,16.09
2023-05-09T03:32:55.884Z,16.09
2023-05-09T03:35:28.808Z,16.09
2023-05-09T03:37:55.436Z,16.09
2023-05-09T03:40:22.146Z,16.08
2023-05-09T03:43:07.627Z,16.08
2023-05-09T03:45:36.206Z,16.08
2023-05-09T03:48:05.417Z,16.07
2023-05-09T03:50:34.434Z,16.09
2023-05-09T03:53:01.276Z,16.06
2023-05-09T03:55:30.578Z,16.05
2023-05-09T03:57:57.621Z,16.03
2023-05-09T04:00:26.862Z,16.02
2023-05-09T04:02:53.741Z,15.99
2023-05-09T04:05:21.512Z,15.98
2023-05-09T04:07:48.244Z,15.97
2023-05-09T04:10:15.518Z,15.99
2023-05-09T04:12:44.896Z,15.99
2023-05-09T04:15:15.415Z,15.99
2023-05-09T04:17:42.935Z,15.98
2023-05-09T04:20:10.909Z,15.99
2023-05-09T04:22:37.709Z,15.98
2023-05-09T04:25:06.605Z,15.97
2023-05-09T04:27:33.867Z,15.99
2023-05-09T04:30:00.525Z,16.00
2023-05-09T04:32:28.088Z,16.01
2023-05-09T04:34:54.772Z,16.02
2023-05-09T04:37:22.168Z,16.05
2023-05-09T04:40:10.493Z,16.07
2023-05-09T04:42:37.660Z,16.08
2023-05-09T04:45:05.641Z,16.08
2023-05-09T04:47:50.956Z,16.11
2023-05-09T04:50:17.690Z,16.10
2023-05-09T04:52:44.502Z,16.11
2023-05-09T04:55:11.421Z,16.12
2023-05-09T04:57:38.164Z,16.15
2023-05-09T05:00:08.028Z,16.15
2023-05-09T05:02:34.949Z,16.17
2023-05-09T05:05:21.784Z,16.16
2023-05-09T05:07:50.533Z,16.17
2023-05-09T05:10:17.240Z,16.18
2023-05-09T05:12:43.981Z,16.20
2023-05-09T05:15:11.144Z,16.21
2023-05-09T05:17:38.928Z,16.20
2023-05-09T05:20:07.563Z,16.23
2023-05-09T05:22:34.341Z,16.23
2023-05-09T05:25:03.448Z,16.24
2023-05-09T05:27:30.114Z,16.23
2023-05-09T05:30:18.380Z,16.25
2023-05-09T05:32:45.037Z,16.24
2023-05-09T05:35:12.185Z,16.25
2023-05-09T05:37:40.423Z,16.25
2023-05-09T05:40:08.149Z,16.29
2023-05-09T05:42:34.956Z,16.30
2023-05-09T05:45:04.454Z,16.33
2023-05-09T05:47:35.653Z,16.36
2023-05-09T05:50:11.685Z,16.37
2023-05-09T05:52:39.379Z,16.40
2023-05-09T05:55:12.492Z,16.44
2023-05-09T05:57:39.485Z,16.46
2023-05-09T06:00:14.739Z,16.48
2023-05-09T06:02:45.368Z,16.51
2023-05-09T06:05:12.624Z,16.51
2023-05-09T06:07:41.961Z,16.54
2023-05-09T06:10:09.018Z,16.55
2023-05-09T06:12:36.702Z,16.57
2023-05-09T06:15:05.864Z,16.57
2023-05-09T06:17:33.765Z,16.60
2023-05-09T06:20:00.599Z,16.65
2023-05-09T06:22:27.389Z,16.71
2023-05-09T06:24:55.904Z,16.80
2023-05-09T06:27:22.760Z,16.87
2023-05-09T06:29:52.745Z,16.92
2023-05-09T06:32:19.644Z,16.98
2023-05-09T06:34:46.526Z,17.04
2023-05-09T06:37:15.321Z,17.13
2023-05-09T06:39:42.260Z,17.21
2023-05-09T06:42:09.622Z,17.31
2023-05-09T06:44:55.030Z,17.45
2023-05-09T06:47:21.727Z,17.55
2023-05-09T06:50:07.431Z,17.72
2023-05-09T06:52:34.077Z,17.86
2023-05-09T06:55:19.538Z,18.00
2023-05-09T06:57:46.238Z,18.15
2023-05-09T07:00:13.835Z,18.27
2023-05-09T07:02:43.251Z,18.32
2023-05-09T07:05:10.791Z,18.27
2023-05-09T07:07:38.901Z,18.19
2023-05-09T07:10:11.843Z,18.09
2023-05-09T07:12:40.901Z,18.01
2023-05-09T07:15:11.059Z,17.92
2023-05-09T07:17:37.938Z,17.86
2023-05-09T07:20:05.738Z,17.84
2023-05-09T07:22:34.126Z,17.77
2023-05-09T07:25:02.377Z,17.77
2023-05-09T07:27:31.237Z,17.77
2023-05-09T07:29:57.929Z,17.77
2023-05-09T07:32:28.876Z,17.78
2023-05-09T07:34:57.883Z,17.72
2023-05-09T07:37:24.535Z,17.75
2023-05-09T07:39:52.508Z,17.76
2023-05-09T07:42:19.148Z,17.77
2023-05-09T07:44:46.464Z,17.79
2023-05-09T07:47:13.048Z,17.81
2023-05-09T07:49:40.726Z,17.85
2023-05-09T07:52:07.413Z,17.86
2023-05-09T07:54:34.126Z,17.89
2023-05-09T07:57:00.802Z,17.94
2023-05-09T07:59:27.854Z,17.95
2023-05-09T08:01:54.607Z,18.00
2023-05-09T08:04:24.895Z,18.06
2023-05-09T08:06:51.625Z,18.13
2023-05-09T08:09:18.767Z,18.19
2023-05-09T08:11:46.002Z,18.23
2023-05-09T08:14:15.622Z,18.34
2023-05-09T08:16:45.163Z,18.45
2023-05-09T08:19:11.735Z,18.60
2023-05-09T08:21:57.069Z,18.66
2023-05-09T08:24:24.127Z,18.77
2023-05-09T08:26:50.820Z,18.89
2023-05-09T08:29:18.358Z,19.00
2023-05-09T08:31:45.188Z,19.11
2023-05-09T08:34:14.005Z,19.19
2023-05-09T08:36:45.581Z,19.23
2023-05-09T08:39:12.311Z,19.31
2023-05-09T08:41:39.898Z,19.54
2023-05-09T08:44:06.984Z,19.75
2023-05-09T08:46:42.393Z,19.94
2023-05-09T08:49:09.983Z,20.09
2023-05-09T08:51:43.406Z,20.22
2023-05-09T08:54:11.387Z,20.36
2023-05-09T08:56:38.279Z,20.42
2023-05-09T08:59:05.940Z,20.43
2023-05-09T09:01:36.846Z,20.48
2023-05-09T09:04:09.095Z,20.53
2023-05-09T09:06:39.559Z,20.60
2023-05-09T09:09:25.497Z,20.67
2023-05-09T09:11:53.459Z,20.80
2023-05-09T09:14:27.698Z,20.92
2023-05-09T09:16:56.159Z,20.99
2023-05-09T09:19:30.704Z,21.00
2023-05-09T09:21:59.769Z,21.00
2023-05-09T09:24:26.454Z,20.92
2023-05-09T09:26:53.240Z,20.86
2023-05-09T09:29:21.072Z,20.78
2023-05-09T09:31:55.165Z,20.68
2023-05-09T09:34:23.544Z,20.65
2023-05-09T09:36:50.649Z,20.67
2023-05-09T09:39:17.555Z,20.63
2023-05-09T09:41:46.968Z,20.59
2023-05-09T09:44:16.127Z,20.58
2023-05-09T09:46:51.383Z,20.63
2023-05-09T09:49:20.236Z,20.66
2023-05-09T09:51:57.953Z,20.82
2023-05-09T09:54:29.297Z,21.00
2023-05-09T09:56:57.246Z,21.11
2023-05-09T09:59:25.918Z,21.17
2023-05-09T10:02:09.335Z,21.23
2023-05-09T10:04:39.453Z,21.37
2023-05-09T10:07:14.876Z,21.57
2023-05-09T10:09:49.347Z,21.79
2023-05-09T10:12:19.800Z,21.90
2023-05-09T10:14:48.313Z,21.98
2023-05-09T10:17:16.251Z,21.93
2023-05-09T10:19:47.662Z,21.84
2023-05-09T10:22:17.981Z,21.72
2023-05-09T10:24:57.649Z,21.47
2023-05-09T10:27:27.646Z,21.34
2023-05-09T10:30:08.711Z,21.20
2023-05-09T10:33:02.921Z,21.11
2023-05-09T10:35:40.753Z,20.94
2023-05-09T10:38:08.007Z,20.88
2023-05-09T10:40:35.348Z,20.92
2023-05-09T10:43:02.100Z,21.02
2023-05-09T10:45:29.095Z,21.12
2023-05-09T10:47:58.347Z,21.24
2023-05-09T10:50:25.962Z,21.37
2023-05-09T10:53:17.954Z,21.48
2023-05-09T10:55:50.763Z,21.64
2023-05-09T10:58:22.874Z,21.82
2023-05-09T11:00:50.809Z,21.84
2023-05-09T11:03:19.686Z,21.85
2023-05-09T11:05:48.176Z,21.86
2023-05-09T11:08:30.721Z,21.96
2023-05-09T11:11:00.753Z,22.04
2023-05-09T11:13:31.683Z,22.00
2023-05-09T11:16:17.038Z,22.01
2023-05-09T11:18:52.525Z,21.99
2023-05-09T11:21:20.532Z,21.92
2023-05-09T11:23:48.180Z,21.87
2023-05-09T11:26:15.993Z,21.90
2023-05-09T11:28:53.751Z,22.07
2023-05-09T11:31:27.510Z,22.28
2023-05-09T11:34:07.186Z,22.45
2023-05-09T11:36:34.081Z,22.62
2023-05-09T11:39:08.556Z,22.73
2023-05-09T11:41:46.584Z,22.68
2023-05-09T11:44:21.484Z,22.79
2023-05-09T11:46:49.462Z,22.93
2023-05-09T11:49:17.761Z,23.01
2023-05-09T11:51:44.437Z,23.13
2023-05-09T11:54:13.674Z,23.22
2023-05-09T11:56:42.080Z,23.33
2023-05-09T11:59:13.219Z,23.40
2023-05-09T12:01:39.952Z,23.38
2023-05-09T12:04:08.970Z,23.36
2023-05-09T12:06:37.798Z,23.42
2023-05-09T12:09:05.281Z,23.44
2023-05-09T12:11:32.558Z,23.44
2023-05-09T12:13:59.385Z,23.45
2023-05-09T12:16:26.131Z,23.38
2023-05-09T12:18:53.054Z,23.38
2023-05-09T12:21:22.056Z,23.35
2023-05-09T12:23:51.236Z,23.36
2023-05-09T12:26:22.710Z,23.37
2023-05-09T12:28:50.186Z,23.37
2023-05-09T12:31:17.574Z,23.36
2023-05-09T12:33:44.748Z,23.35
2023-05-09T12:36:13.616Z,23.28
2023-05-09T12:38:40.298Z,23.29
2023-05-09T12:41:31.052Z,23.30
2023-05-09T12:44:02.027Z,23.33
2023-05-09T12:46:28.782Z,23.24
2023-05-09T12:48:55.738Z,23.26
2023-05-09T12:51:23.042Z,23.27
2023-05-09T12:53:50.088Z,23.12
2023-05-09T12:56:19.326Z,23.11
2023-05-09T12:58:51.309Z,23.10
2023-05-09T13:01:23.091Z,23.13
2023-05-09T13:04:00.207Z,23.11
2023-05-09T13:06:27.269Z,23.02
2023-05-09T13:09:01.665Z,22.93
2023-05-09T13:11:54.242Z,22.73
2023-05-09T13:14:22.628Z,22.64
2023-05-09T13:16:49.261Z,22.62
2023-05-09T13:19:39.448Z,22.58
2023-05-09T13:22:07.214Z,22.57
2023-05-09T13:24:33.886Z,22.50
2023-05-09T13:27:00.681Z,22.38
2023-05-09T13:29:27.365Z,22.31
2023-05-09T13:31:54.715Z,22.31
2023-05-09T13:34:23.169Z,22.30
2023-05-09T13:37:09.161Z,22.31
2023-05-09T13:39:36.545Z,22.29
2023-05-09T13:42:04.980Z,22.23
2023-05-09T13:44:31.704Z,22.26
2023-05-09T13:47:00.235Z,22.15
2023-05-09T13:49:44.081Z,22.14
2023-05-09T13:52:12.767Z,22.12
2023-05-09T13:54:41.512Z,22.10
2023-05-09T13:57:08.198Z,22.10
2023-05-09T13:59:35.448Z,21.99
2023-05-09T14:02:02.585Z,21.83
2023-05-09T14:04:35.069Z,21.80
2023-05-09T14:07:01.974Z,21.74
2023-05-09T14:09:29.670Z,21.67
2023-05-09T14:11:57.161Z,21.67
2023-05-09T14:14:43.435Z,21.60
2023-05-09T14:17:10.321Z,21.55
2023-05-09T14:19:38.864Z,21.46
2023-05-09T14:22:05.497Z,21.40
2023-05-09T14:24:33.474Z,21.26
2023-05-09T14:27:00.312Z,21.02
2023-05-09T14:29:27.406Z,20.93
2023-05-09T14:31:56.163Z,20.80
2023-05-09T14:34:23.087Z,20.69
2023-05-09T14:36:50.301Z,20.57
2023-05-09T14:39:17.143Z,20.41
2023-05-09T14:41:47.848Z,20.37
2023-05-09T14:44:14.588Z,20.11
2023-05-09T14:46:48.435Z,19.94
2023-05-09T14:49:15.176Z,19.71
2023-05-09T14:51:50.717Z,19.73
2023-05-09T14:54:17.339Z,19.72
2023-05-09T14:56:44.672Z,19.76
2023-05-09T14:59:11.846Z,19.76
2023-05-09T15:01:39.764Z,19.66
2023-05-09T15:04:06.660Z,19.60
2023-05-09T15:06:33.654Z,19.50
2023-05-09T15:09:01.927Z,19.40
2023-05-09T15:11:28.822Z,19.35
2023-05-09T15:14:18.859Z,19.40
2023-05-09T15:16:45.760Z,19.43
2023-05-09T15:19:12.748Z,19.48
2023-05-09T15:21:58.856Z,19.40
2023-05-09T15:24:30.528Z,19.29
2023-05-09T15:26:57.257Z,19.27
2023-05-09T15:29:26.046Z,19.22
2023-05-09T15:31:55.745Z,19.10
2023-05-09T15:34:24.015Z,19.14
2023-05-09T15:36:50.674Z,19.18
2023-05-09T15:39:18.070Z,19.14
2023-05-09T15:41:45.010Z,19.20
2023-05-09T15:44:14.485Z,19.27
2023-05-09T15:46:41.267Z,19.32
2023-05-09T15:49:08.173Z,19.33
2023-05-09T15:51:35.151Z,19.24
2023-05-09T15:54:06.962Z,19.27
2023-05-09T15:56:33.555Z,19.24
2023-05-09T15:59:00.458Z,19.26
2023-05-09T16:01:27.277Z,19.26
2023-05-09T16:03:54.025Z,19.28
2023-05-09T16:06:27.013Z,19.30
2023-05-09T16:08:54.428Z,19.24
2023-05-09T16:11:21.965Z,19.26
2023-05-09T16:14:11.375Z,19.24
2023-05-09T16:16:39.592Z,19.14
2023-05-09T16:19:06.932Z,19.09
2023-05-09T16:21:52.548Z,19.01
2023-05-09T16:24:19.227Z,19.02
2023-05-09T16:26:48.042Z,18.99
2023-05-09T16:29:14.686Z,18.98
2023-05-09T16:31:41.388Z,18.91
2023-05-09T16:34:09.161Z,18.95
2023-05-09T16:36:37.572Z,18.97
2023-05-09T16:39:04.234Z,18.87
2023-05-09T16:41:32.775Z,18.86
2023-05-09T16:44:00.246Z,18.82
2023-05-09T16:46:27.205Z,18.77
2023-05-09T16:48:55.701Z,18.74
2023-05-09T16:51:28.327Z,18.66
2023-05-09T16:53:55.358Z,18.68
2023-05-09T16:56:22.705Z,18.67
2023-05-09T16:58:49.977Z,18.65
2023-05-09T17:01:16.753Z,18.64
2023-05-09T17:03:43.512Z,18.63
2023-05-09T17:06:10.432Z,18.65
2023-05-09T17:08:37.158Z,18.63
2023-05-09T17:11:05.496Z,18.60
2023-05-09T17:13:32.237Z,18.54
2023-05-09T17:15:59.040Z,18.51
2023-05-09T17:18:36.570Z,18.50
2023-05-09T17:21:04.858Z,18.43
2023-05-09T17:23:31.932Z,18.38
2023-05-09T17:26:01.099Z,18.31
2023-05-09T17:31:18.502Z,18.19
2023-05-09T17:33:47.308Z,18.10
2023-05-09T17:36:14.077Z,18.04
2023-05-09T17:38:41.026Z,18.01
2023-05-09T17:41:08.217Z,17.91
2023-05-09T17:43:35.035Z,17.86
2023-05-09T17:46:01.809Z,17.80
2023-05-09T17:48:30.504Z,17.73
2023-05-09T17:50:59.650Z,17.67
2023-05-09T17:53:26.625Z,17.64
2023-05-09T17:55:53.285Z,17.61
2023-05-09T17:58:20.889Z,17.53
2023-05-09T18:00:47.604Z,17.48
2023-05-09T18:03:33.014Z,17.44
2023-05-09T18:06:02.892Z,17.37
2023-05-09T18:08:29.982Z,17.39
2023-05-09T18:10:57.515Z,17.39
2023-05-09T18:13:24.450Z,17.36
2023-05-09T18:15:51.512Z,17.32
2023-05-09T18:18:22.443Z,17.28
2023-05-09T18:20:49.269Z,17.25
2023-05-09T18:23:16.114Z,17.30
2023-05-09T18:25:42.779Z,17.29
2023-05-09T18:28:13.962Z,17.23
2023-05-09T18:30:41.357Z,17.19
2023-05-09T18:33:08.216Z,17.14
2023-05-09T18:35:35.202Z,17.14
2023-05-09T18:38:02.143Z,17.13
2023-05-09T18:40:28.819Z,17.13
2023-05-09T18:42:55.453Z,17.14
2023-05-09T18:45:22.458Z,17.15
2023-05-09T18:47:49.286Z,17.09
2023-05-09T18:50:16.473Z,17.07
2023-05-09T18:53:03.254Z,16.93
2023-05-09T18:55:29.872Z,16.87
2023-05-09T18:57:56.680Z,16.92
2023-05-09T19:00:23.816Z,16.95
2023-05-09T19:02:50.508Z,16.97
2023-05-09T19:05:17.317Z,16.97
2023-05-09T19:07:43.921Z,16.92
2023-05-09T19:10:11.043Z,16.92
2023-05-09T19:12:37.757Z,16.91
2023-05-09T19:15:07.566Z,16.89
2023-05-09T19:17:34.703Z,16.87
2023-05-09T19:20:02.657Z,16.89
2023-05-09T19:22:29.655Z,16.87
2023-05-09T19:25:01.326Z,16.83
2023-05-09T19:27:32.859Z,16.82
2023-05-09T19:30:00.021Z,16.80
2023-05-09T19:32:27.350Z,16.81
2023-05-09T19:34:54.114Z,16.77
2023-05-09T19:37:20.758Z,16.75
2023-05-09T19:39:47.611Z,16.73
2023-05-09T19:42:15.054Z,16.74
2023-05-09T19:44:41.901Z,16.73
2023-05-09T19:47:14.265Z,16.72
2023-05-09T19:49:42.869Z,16.69
2023-05-09T19:52:10.758Z,16.66
2023-05-09T19:54:37.535Z,16.65
2023-05-09T19:57:06.582Z,16.63
2023-05-09T19:59:33.380Z,16.62
2023-05-09T20:02:05.929Z,16.59
2023-05-09T20:04:35.213Z,16.59
2023-05-09T20:07:05.166Z,16.57
2023-05-09T20:09:32.996Z,16.58
2023-05-09T20:12:02.129Z,16.53
2023-05-09T20:14:29.789Z,16.52
2023-05-09T20:16:57.117Z,16.52
2023-05-09T20:19:23.989Z,16.50
2023-05-09T20:22:09.168Z,16.51
2023-05-09T20:24:35.801Z,16.50
2023-05-09T20:27:03.183Z,16.49
2023-05-09T20:29:29.928Z,16.45
2023-05-09T20:31:56.617Z,16.42
2023-05-09T20:34:24.650Z,16.41
2023-05-09T20:36:53.609Z,16.40
2023-05-09T20:39:21.243Z,16.39
2023-05-09T20:41:49.482Z,16.37
2023-05-09T20:44:17.719Z,16.35
2023-05-09T20:46:46.149Z,16.32
2023-05-09T20:49:12.934Z,16.28
2023-05-09T20:51:39.595Z,16.26
2023-05-09T20:54:08.373Z,16.26
2023-05-09T20:56:35.689Z,16.25
2023-05-09T20:59:04.445Z,16.23
2023-05-09T21:01:35.504Z,16.22
2023-05-09T21:04:08.337Z,16.23
2023-05-09T21:06:36.558Z,16.21
2023-05-09T21:09:06.349Z,16.22
2023-05-09T21:11:33.101Z,16.20
2023-05-09T21:14:00.114Z,16.19
2023-05-09T21:16:33.967Z,16.19
2023-05-09T21:19:04.940Z,16.18
2023-05-09T21:21:33.645Z,16.18
2023-05-09T21:24:03.348Z,16.16
2023-05-09T21:26:49.008Z,16.17
2023-05-09T21:29:15.679Z,16.16
2023-05-09T21:31:42.410Z,16.13
2023-05-09T21:34:11.593Z,16.11
2023-05-09T21:36:40.014Z,16.10
2023-05-09T21:42:16.352Z,16.03
2023-05-09T21:44:43.055Z,16.04
2023-05-09T21:47:10.277Z,16.01
2023-05-09T21:49:37.725Z,15.98
2023-05-09T21:52:04.685Z,15.97
2023-05-09T21:54:33.751Z,15.95
2023-05-09T21:57:01.072Z,15.95
2023-05-09T21:59:46.345Z,15.96
2023-05-09T22:02:13.057Z,15.96
2023-05-09T22:04:40.312Z,15.95
2023-05-09T22:07:06.985Z,15.96
2023-05-09T22:09:33.631Z,15.96
2023-05-09T22:12:00.211Z,15.94
2023-05-09T22:14:27.093Z,15.92
2023-05-09T22:16:55.303Z,15.91
2023-05-09T22:19:21.974Z,15.90
2023-05-09T22:21:50.372Z,15.90
2023-05-09T22:24:17.020Z,15.90
2023-05-09T22:27:02.489Z,15.94
2023-05-09T22:29:34.491Z,15.92
2023-05-09T22:32:02.281Z,15.89
2023-05-09T22:34:28.971Z,15.87
2023-05-09T22:36:55.517Z,15.88
2023-05-09T22:39:40.853Z,15.89
2023-05-09T22:42:11.029Z,15.88
2023-05-09T22:44:39.564Z,15.87
2023-05-09T22:47:09.808Z,15.84
2023-05-09T22:49:36.614Z,15.82
2023-05-09T22:52:05.018Z,15.83
2023-05-09T22:54:31.753Z,15.80
2023-05-09T22:56:58.403Z,15.78
2023-05-09T22:59:26.694Z,15.79
2023-05-09T23:01:53.621Z,15.77
2023-05-09T23:04:20.721Z,15.78
2023-05-09T23:06:47.483Z,15.76
2023-05-09T23:09:14.118Z,15.74
2023-05-09T23:11:59.734Z,15.77
2023-05-09T23:14:26.903Z,15.71
2023-05-09T23:16:56.695Z,15.71
2023-05-09T23:19:23.506Z,15.69
2023-05-09T23:21:51.489Z,15.64
2023-05-09T23:24:18.165Z,15.67
2023-05-09T23:26:45.228Z,15.67
2023-05-09T23:29:12.052Z,15.67
2023-05-09T23:31:42.940Z,15.67
2023-05-09T23:34:09.615Z,15.66
2023-05-09T23:36:36.252Z,15.67
2023-05-09T23:39:03.520Z,15.67
2023-05-09T23:41:30.192Z,15.67
2023-05-09T23:44:15.615Z,15.65
2023-05-09T23:46:42.425Z,15.56
2023-05-09T23:49:14.979Z,15.51
2023-05-09T23:51:41.752Z,15.46
2023-05-09T23:54:08.668Z,15.43
2023-05-09T23:56:36.084Z,15.30
2023-05-09T23:59:02.749Z,15.18
